sensor_id;sensor_type;location;lat;lon;timestamp;P1;durP1;ratioP1;P2;durP2;ratioP2
14903;SDS011;7543;53.148;8.234;2023-02-28T00:01:13;8.03;;;4.23;;
14903;SDS011;7543;53.148;8.234;2023-02-28T00:03:42;5.93;;;3.43;;
14903;SDS011;7543;53.148;8.234;2023-02-28T00:06:10;7.83;;;4.37;;
14903;SDS011;7543;53.148;8.234;2023-02-28T00:08:39;7.37;;;3.67;;
14903;SDS011;7543;53.148;8.234;2023-02-28T00:11:10;6.97;;;4.07;;
14903;SDS011;7543;53.148;8.234;2023-02-28T00:13:40;8.13;;;4.20;;
14903;SDS011;7543;53.148;8.234;2023-02-28T00:16:11;8.03;;;4.10;;
14903;SDS011;7543;53.148;8.234;2023-02-28T00:18:41;8.40;;;4.00;;
14903;SDS011;7543;53.148;8.234;2023-02-28T00:21:09;8.43;;;3.70;;
14903;SDS011;7543;53.148;8.234;2023-02-28T00:23:38;7.40;;;3.63;;
14903;SDS011;7543;53.148;8.234;2023-02-28T00:26:06;6.40;;;3.87;;
14903;SDS011;7543;53.148;8.234;2023-02-28T00:28:36;10.03;;;3.80;;
14903;SDS011;7543;53.148;8.234;2023-02-28T00:31:04;8.33;;;3.60;;
14903;SDS011;7543;53.148;8.234;2023-02-28T00:33:33;6.03;;;3.80;;
14903;SDS011;7543;53.148;8.234;2023-02-28T00:36:05;5.80;;;3.83;;
14903;SDS011;7543;53.148;8.234;2023-02-28T00:38:36;6.87;;;3.60;;
14903;SDS011;7543;53.148;8.234;2023-02-28T00:41:05;6.50;;;3.43;;
14903;SDS011;7543;53.148;8.234;2023-02-28T00:43:34;8.03;;;3.90;;
14903;SDS011;7543;53.148;8.234;2023-02-28T00:46:05;11.13;;;4.20;;
14903;SDS011;7543;53.148;8.234;2023-02-28T00:48:34;7.20;;;3.67;;
14903;SDS011;7543;53.148;8.234;2023-02-28T00:51:03;7.70;;;3.80;;
14903;SDS011;7543;53.148;8.234;2023-02-28T00:53:32;5.40;;;3.30;;
14903;SDS011;7543;53.148;8.234;2023-02-28T00:56:01;6.77;;;3.83;;
14903;SDS011;7543;53.148;8.234;2023-02-28T00:58:29;8.80;;;3.83;;
14903;SDS011;7543;53.148;8.234;2023-02-28T01:00:59;8.00;;;3.60;;
14903;SDS011;7543;53.148;8.234;2023-02-28T01:03:27;6.70;;;3.90;;
14903;SDS011;7543;53.148;8.234;2023-02-28T01:05:55;6.73;;;3.97;;
14903;SDS011;7543;53.148;8.234;2023-02-28T01:08:24;5.77;;;3.80;;
14903;SDS011;7543;53.148;8.234;2023-02-28T01:10:53;9.03;;;4.07;;
14903;SDS011;7543;53.148;8.234;2023-02-28T01:13:22;6.43;;;4.00;;
14903;SDS011;7543;53.148;8.234;2023-02-28T01:15:53;7.17;;;4.17;;
14903;SDS011;7543;53.148;8.234;2023-02-28T01:18:24;8.13;;;4.27;;
14903;SDS011;7543;53.148;8.234;2023-02-28T01:20:53;7.53;;;4.00;;
14903;SDS011;7543;53.148;8.234;2023-02-28T01:23:22;6.87;;;3.83;;
14903;SDS011;7543;53.148;8.234;2023-02-28T01:25:51;6.83;;;4.40;;
14903;SDS011;7543;53.148;8.234;2023-02-28T01:28:20;7.37;;;3.97;;
14903;SDS011;7543;53.148;8.234;2023-02-28T01:30:50;6.47;;;3.80;;
14903;SDS011;7543;53.148;8.234;2023-02-28T01:33:19;6.53;;;3.83;;
14903;SDS011;7543;53.148;8.234;2023-02-28T01:35:48;7.03;;;3.73;;
14903;SDS011;7543;53.148;8.234;2023-02-28T01:38:17;7.33;;;4.00;;
14903;SDS011;7543;53.148;8.234;2023-02-28T01:40:45;8.37;;;3.90;;
14903;SDS011;7543;53.148;8.234;2023-02-28T01:43:16;7.47;;;3.90;;
14903;SDS011;7543;53.148;8.234;2023-02-28T01:45:48;7.07;;;3.83;;
14903;SDS011;7543;53.148;8.234;2023-02-28T01:48:17;6.83;;;3.80;;
14903;SDS011;7543;53.148;8.234;2023-02-28T01:50:48;9.90;;;3.90;;
14903;SDS011;7543;53.148;8.234;2023-02-28T01:53:18;6.13;;;3.47;;
14903;SDS011;7543;53.148;8.234;2023-02-28T01:55:49;8.10;;;3.57;;
14903;SDS011;7543;53.148;8.234;2023-02-28T01:58:20;6.80;;;4.20;;
14903;SDS011;7543;53.148;8.234;2023-02-28T02:00:49;8.80;;;4.10;;
14903;SDS011;7543;53.148;8.234;2023-02-28T02:03:18;7.03;;;4.00;;
14903;SDS011;7543;53.148;8.234;2023-02-28T02:05:48;7.20;;;3.93;;
14903;SDS011;7543;53.148;8.234;2023-02-28T02:08:17;8.10;;;3.93;;
14903;SDS011;7543;53.148;8.234;2023-02-28T02:10:48;6.50;;;4.00;;
14903;SDS011;7543;53.148;8.234;2023-02-28T02:13:24;6.60;;;3.80;;
14903;SDS011;7543;53.148;8.234;2023-02-28T02:16:10;5.77;;;3.47;;
14903;SDS011;7543;53.148;8.234;2023-02-28T02:18:46;4.67;;;3.20;;
14903;SDS011;7543;53.148;8.234;2023-02-28T02:21:21;5.03;;;3.23;;
14903;SDS011;7543;53.148;8.234;2023-02-28T02:24:20;7.73;;;3.60;;
14903;SDS011;7543;53.148;8.234;2023-02-28T02:27:09;5.27;;;3.10;;
14903;SDS011;7543;53.148;8.234;2023-02-28T02:35:43;8.57;;;3.60;;
14903;SDS011;7543;53.148;8.234;2023-02-28T02:38:16;3.97;;;3.10;;
14903;SDS011;7543;53.148;8.234;2023-02-28T02:40:51;4.33;;;2.60;;
14903;SDS011;7543;53.148;8.234;2023-02-28T02:43:25;5.13;;;3.00;;
14903;SDS011;7543;53.148;8.234;2023-02-28T02:45:59;5.13;;;3.10;;
14903;SDS011;7543;53.148;8.234;2023-02-28T02:48:33;4.73;;;3.13;;
14903;SDS011;7543;53.148;8.234;2023-02-28T02:51:04;5.40;;;3.30;;
14903;SDS011;7543;53.148;8.234;2023-02-28T02:53:41;5.30;;;3.07;;
14903;SDS011;7543;53.148;8.234;2023-02-28T02:56:12;4.40;;;3.03;;
14903;SDS011;7543;53.148;8.234;2023-02-28T02:58:41;6.23;;;3.07;;
14903;SDS011;7543;53.148;8.234;2023-02-28T03:01:12;7.67;;;3.27;;
14903;SDS011;7543;53.148;8.234;2023-02-28T03:03:42;3.77;;;2.67;;
14903;SDS011;7543;53.148;8.234;2023-02-28T03:06:12;4.23;;;3.07;;
14903;SDS011;7543;53.148;8.234;2023-02-28T03:11:39;4.80;;;2.90;;
14903;SDS011;7543;53.148;8.234;2023-02-28T03:14:10;4.97;;;2.90;;
14903;SDS011;7543;53.148;8.234;2023-02-28T03:16:59;4.67;;;2.67;;
14903;SDS011;7543;53.148;8.234;2023-02-28T03:19:40;5.27;;;2.80;;
14903;SDS011;7543;53.148;8.234;2023-02-28T03:22:35;6.03;;;3.40;;
14903;SDS011;7543;53.148;8.234;2023-02-28T03:25:08;4.50;;;2.90;;
14903;SDS011;7543;53.148;8.234;2023-02-28T03:27:42;6.20;;;3.20;;
14903;SDS011;7543;53.148;8.234;2023-02-28T03:30:18;4.37;;;2.90;;
14903;SDS011;7543;53.148;8.234;2023-02-28T03:32:51;7.90;;;3.00;;
14903;SDS011;7543;53.148;8.234;2023-02-28T03:35:22;6.83;;;2.97;;
14903;SDS011;7543;53.148;8.234;2023-02-28T03:37:55;5.87;;;2.97;;
14903;SDS011;7543;53.148;8.234;2023-02-28T03:40:28;4.60;;;3.13;;
14903;SDS011;7543;53.148;8.234;2023-02-28T03:42:59;4.47;;;2.60;;
14903;SDS011;7543;53.148;8.234;2023-02-28T03:45:30;6.47;;;2.70;;
14903;SDS011;7543;53.148;8.234;2023-02-28T03:48:02;4.57;;;2.87;;
14903;SDS011;7543;53.148;8.234;2023-02-28T03:50:34;4.47;;;2.73;;
14903;SDS011;7543;53.148;8.234;2023-02-28T03:53:06;5.23;;;3.17;;
14903;SDS011;7543;53.148;8.234;2023-02-28T03:55:37;5.83;;;3.27;;
14903;SDS011;7543;53.148;8.234;2023-02-28T03:58:09;5.13;;;3.20;;
14903;SDS011;7543;53.148;8.234;2023-02-28T04:00:40;6.40;;;3.37;;
14903;SDS011;7543;53.148;8.234;2023-02-28T04:03:13;7.57;;;3.30;;
14903;SDS011;7543;53.148;8.234;2023-02-28T04:05:46;5.27;;;3.07;;
14903;SDS011;7543;53.148;8.234;2023-02-28T04:08:17;6.63;;;3.83;;
14903;SDS011;7543;53.148;8.234;2023-02-28T04:10:47;6.70;;;3.53;;
14903;SDS011;7543;53.148;8.234;2023-02-28T04:13:17;5.07;;;3.17;;
14903;SDS011;7543;53.148;8.234;2023-02-28T04:15:45;6.40;;;3.33;;
14903;SDS011;7543;53.148;8.234;2023-02-28T04:18:13;6.83;;;3.40;;
14903;SDS011;7543;53.148;8.234;2023-02-28T04:20:42;6.13;;;3.43;;
14903;SDS011;7543;53.148;8.234;2023-02-28T04:23:10;7.27;;;3.70;;
14903;SDS011;7543;53.148;8.234;2023-02-28T04:25:40;8.97;;;3.70;;
14903;SDS011;7543;53.148;8.234;2023-02-28T04:28:08;6.70;;;3.47;;
14903;SDS011;7543;53.148;8.234;2023-02-28T04:30:37;4.80;;;3.50;;
14903;SDS011;7543;53.148;8.234;2023-02-28T04:33:06;6.03;;;3.17;;
14903;SDS011;7543;53.148;8.234;2023-02-28T04:35:34;6.97;;;3.33;;
14903;SDS011;7543;53.148;8.234;2023-02-28T04:38:02;5.57;;;3.40;;
14903;SDS011;7543;53.148;8.234;2023-02-28T04:40:31;5.10;;;3.27;;
14903;SDS011;7543;53.148;8.234;2023-02-28T04:43:00;5.07;;;3.03;;
14903;SDS011;7543;53.148;8.234;2023-02-28T04:45:30;6.50;;;3.43;;
14903;SDS011;7543;53.148;8.234;2023-02-28T04:48:00;5.10;;;3.77;;
14903;SDS011;7543;53.148;8.234;2023-02-28T04:50:28;6.33;;;4.10;;
14903;SDS011;7543;53.148;8.234;2023-02-28T04:52:56;7.53;;;3.70;;
14903;SDS011;7543;53.148;8.234;2023-02-28T04:55:25;5.27;;;3.37;;
14903;SDS011;7543;53.148;8.234;2023-02-28T04:57:53;5.83;;;4.10;;
14903;SDS011;7543;53.148;8.234;2023-02-28T05:00:23;6.27;;;3.83;;
14903;SDS011;7543;53.148;8.234;2023-02-28T05:02:51;6.30;;;3.80;;
14903;SDS011;7543;53.148;8.234;2023-02-28T05:05:20;6.10;;;3.70;;
14903;SDS011;7543;53.148;8.234;2023-02-28T05:07:48;8.50;;;4.20;;
14903;SDS011;7543;53.148;8.234;2023-02-28T05:10:17;6.87;;;3.90;;
14903;SDS011;7543;53.148;8.234;2023-02-28T05:12:45;5.67;;;3.60;;
14903;SDS011;7543;53.148;8.234;2023-02-28T05:15:15;11.43;;;4.13;;
14903;SDS011;7543;53.148;8.234;2023-02-28T05:17:45;8.43;;;4.50;;
14903;SDS011;7543;53.148;8.234;2023-02-28T05:20:13;9.67;;;4.37;;
14903;SDS011;7543;53.148;8.234;2023-02-28T05:22:41;6.80;;;4.17;;
14903;SDS011;7543;53.148;8.234;2023-02-28T05:25:10;8.03;;;4.90;;
14903;SDS011;7543;53.148;8.234;2023-02-28T05:27:39;10.33;;;4.40;;
14903;SDS011;7543;53.148;8.234;2023-02-28T05:30:08;7.20;;;4.00;;
14903;SDS011;7543;53.148;8.234;2023-02-28T05:32:38;8.37;;;4.40;;
14903;SDS011;7543;53.148;8.234;2023-02-28T05:35:11;6.23;;;4.07;;
14903;SDS011;7543;53.148;8.234;2023-02-28T05:37:39;6.70;;;4.23;;
14903;SDS011;7543;53.148;8.234;2023-02-28T05:40:08;8.27;;;4.20;;
14903;SDS011;7543;53.148;8.234;2023-02-28T05:42:37;8.20;;;4.47;;
14903;SDS011;7543;53.148;8.234;2023-02-28T05:45:06;5.60;;;3.90;;
14903;SDS011;7543;53.148;8.234;2023-02-28T05:47:35;10.40;;;4.63;;
14903;SDS011;7543;53.148;8.234;2023-02-28T05:50:04;6.37;;;4.03;;
14903;SDS011;7543;53.148;8.234;2023-02-28T05:52:36;7.63;;;4.27;;
14903;SDS011;7543;53.148;8.234;2023-02-28T05:55:04;7.43;;;4.07;;
14903;SDS011;7543;53.148;8.234;2023-02-28T05:57:33;6.67;;;3.90;;
14903;SDS011;7543;53.148;8.234;2023-02-28T06:00:02;6.33;;;4.13;;
14903;SDS011;7543;53.148;8.234;2023-02-28T06:02:39;6.23;;;4.20;;
14903;SDS011;7543;53.148;8.234;2023-02-28T06:05:08;9.80;;;4.10;;
14903;SDS011;7543;53.148;8.234;2023-02-28T06:07:42;6.00;;;3.90;;
14903;SDS011;7543;53.148;8.234;2023-02-28T06:10:11;7.07;;;3.70;;
14903;SDS011;7543;53.148;8.234;2023-02-28T06:12:40;8.43;;;3.90;;
14903;SDS011;7543;53.148;8.234;2023-02-28T06:15:10;7.13;;;3.97;;
14903;SDS011;7543;53.148;8.234;2023-02-28T06:17:39;7.03;;;4.27;;
14903;SDS011;7543;53.148;8.234;2023-02-28T06:20:08;6.23;;;4.13;;
14903;SDS011;7543;53.148;8.234;2023-02-28T06:22:39;11.17;;;4.50;;
14903;SDS011;7543;53.148;8.234;2023-02-28T06:25:10;8.97;;;3.93;;
14903;SDS011;7543;53.148;8.234;2023-02-28T06:27:38;6.13;;;3.67;;
14903;SDS011;7543;53.148;8.234;2023-02-28T06:30:07;6.20;;;3.93;;
14903;SDS011;7543;53.148;8.234;2023-02-28T06:32:36;7.10;;;3.67;;
14903;SDS011;7543;53.148;8.234;2023-02-28T06:35:05;6.77;;;4.00;;
14903;SDS011;7543;53.148;8.234;2023-02-28T06:37:33;4.73;;;3.30;;
14903;SDS011;7543;53.148;8.234;2023-02-28T06:40:02;10.13;;;4.03;;
14903;SDS011;7543;53.148;8.234;2023-02-28T06:42:34;7.43;;;3.40;;
14903;SDS011;7543;53.148;8.234;2023-02-28T06:45:02;7.63;;;3.90;;
14903;SDS011;7543;53.148;8.234;2023-02-28T06:47:35;6.23;;;3.70;;
14903;SDS011;7543;53.148;8.234;2023-02-28T06:50:04;6.77;;;3.87;;
14903;SDS011;7543;53.148;8.234;2023-02-28T06:52:33;8.30;;;3.97;;
14903;SDS011;7543;53.148;8.234;2023-02-28T06:55:04;4.07;;;3.30;;
14903;SDS011;7543;53.148;8.234;2023-02-28T06:57:35;5.90;;;3.60;;
14903;SDS011;7543;53.148;8.234;2023-02-28T07:00:04;5.20;;;3.43;;
14903;SDS011;7543;53.148;8.234;2023-02-28T07:02:35;8.33;;;3.60;;
14903;SDS011;7543;53.148;8.234;2023-02-28T07:05:04;12.77;;;4.00;;
14903;SDS011;7543;53.148;8.234;2023-02-28T07:07:33;7.37;;;3.67;;
14903;SDS011;7543;53.148;8.234;2023-02-28T07:10:03;8.13;;;3.60;;
14903;SDS011;7543;53.148;8.234;2023-02-28T07:12:31;8.10;;;3.90;;
14903;SDS011;7543;53.148;8.234;2023-02-28T07:15:01;6.23;;;3.93;;
14903;SDS011;7543;53.148;8.234;2023-02-28T07:17:30;6.67;;;3.50;;
14903;SDS011;7543;53.148;8.234;2023-02-28T07:19:58;9.43;;;3.77;;
14903;SDS011;7543;53.148;8.234;2023-02-28T07:22:26;4.90;;;3.13;;
14903;SDS011;7543;53.148;8.234;2023-02-28T07:24:55;4.87;;;3.10;;
14903;SDS011;7543;53.148;8.234;2023-02-28T07:27:23;5.17;;;3.00;;
14903;SDS011;7543;53.148;8.234;2023-02-28T07:29:52;8.77;;;3.77;;
14903;SDS011;7543;53.148;8.234;2023-02-28T07:32:22;6.90;;;3.10;;
14903;SDS011;7543;53.148;8.234;2023-02-28T07:34:51;9.30;;;3.07;;
14903;SDS011;7543;53.148;8.234;2023-02-28T07:37:19;6.00;;;2.90;;
14903;SDS011;7543;53.148;8.234;2023-02-28T07:39:47;4.30;;;2.80;;
14903;SDS011;7543;53.148;8.234;2023-02-28T07:42:15;5.07;;;3.07;;
14903;SDS011;7543;53.148;8.234;2023-02-28T07:44:44;6.00;;;3.30;;
14903;SDS011;7543;53.148;8.234;2023-02-28T07:47:12;5.57;;;2.83;;
14903;SDS011;7543;53.148;8.234;2023-02-28T07:49:42;5.07;;;3.27;;
14903;SDS011;7543;53.148;8.234;2023-02-28T07:52:10;4.77;;;3.20;;
14903;SDS011;7543;53.148;8.234;2023-02-28T07:54:38;4.17;;;2.57;;
14903;SDS011;7543;53.148;8.234;2023-02-28T07:57:07;7.57;;;3.53;;
14903;SDS011;7543;53.148;8.234;2023-02-28T07:59:35;4.63;;;3.00;;
14903;SDS011;7543;53.148;8.234;2023-02-28T08:02:03;6.00;;;2.77;;
14903;SDS011;7543;53.148;8.234;2023-02-28T08:04:31;6.57;;;3.13;;
14903;SDS011;7543;53.148;8.234;2023-02-28T08:07:01;5.40;;;2.63;;
14903;SDS011;7543;53.148;8.234;2023-02-28T08:09:29;7.23;;;3.03;;
14903;SDS011;7543;53.148;8.234;2023-02-28T08:11:57;4.23;;;2.50;;
14903;SDS011;7543;53.148;8.234;2023-02-28T08:14:26;5.63;;;2.73;;
14903;SDS011;7543;53.148;8.234;2023-02-28T08:16:54;4.43;;;2.53;;
14903;SDS011;7543;53.148;8.234;2023-02-28T08:19:22;4.23;;;2.50;;
14903;SDS011;7543;53.148;8.234;2023-02-28T08:21:50;4.67;;;2.77;;
14903;SDS011;7543;53.148;8.234;2023-02-28T08:24:20;5.00;;;2.37;;
14903;SDS011;7543;53.148;8.234;2023-02-28T08:26:48;6.10;;;2.50;;
14903;SDS011;7543;53.148;8.234;2023-02-28T08:29:16;5.13;;;2.30;;
14903;SDS011;7543;53.148;8.234;2023-02-28T08:31:45;4.23;;;2.10;;
14903;SDS011;7543;53.148;8.234;2023-02-28T08:34:14;4.63;;;2.57;;
14903;SDS011;7543;53.148;8.234;2023-02-28T08:36:43;5.43;;;2.60;;
14903;SDS011;7543;53.148;8.234;2023-02-28T08:39:12;6.40;;;2.57;;
14903;SDS011;7543;53.148;8.234;2023-02-28T08:41:43;3.73;;;2.40;;
14903;SDS011;7543;53.148;8.234;2023-02-28T08:44:11;4.83;;;2.00;;
14903;SDS011;7543;53.148;8.234;2023-02-28T08:46:39;3.80;;;2.37;;
14903;SDS011;7543;53.148;8.234;2023-02-28T08:49:09;4.13;;;2.30;;
14903;SDS011;7543;53.148;8.234;2023-02-28T08:51:41;5.37;;;2.23;;
14903;SDS011;7543;53.148;8.234;2023-02-28T08:54:09;3.57;;;2.23;;
14903;SDS011;7543;53.148;8.234;2023-02-28T08:56:39;4.10;;;2.20;;
14903;SDS011;7543;53.148;8.234;2023-02-28T08:59:09;2.27;;;1.87;;
14903;SDS011;7543;53.148;8.234;2023-02-28T09:01:37;4.87;;;2.23;;
14903;SDS011;7543;53.148;8.234;2023-02-28T09:04:05;3.13;;;2.03;;
14903;SDS011;7543;53.148;8.234;2023-02-28T09:06:35;4.93;;;2.30;;
14903;SDS011;7543;53.148;8.234;2023-02-28T09:09:03;5.43;;;2.00;;
14903;SDS011;7543;53.148;8.234;2023-02-28T09:11:34;3.57;;;2.00;;
14903;SDS011;7543;53.148;8.234;2023-02-28T09:14:02;4.43;;;2.23;;
14903;SDS011;7543;53.148;8.234;2023-02-28T09:16:32;2.73;;;1.70;;
14903;SDS011;7543;53.148;8.234;2023-02-28T09:19:01;3.77;;;1.20;;
14903;SDS011;7543;53.148;8.234;2023-02-28T09:21:29;2.23;;;1.33;;
14903;SDS011;7543;53.148;8.234;2023-02-28T09:23:57;2.30;;;1.00;;
14903;SDS011;7543;53.148;8.234;2023-02-28T09:26:26;1.63;;;1.27;;
14903;SDS011;7543;53.148;8.234;2023-02-28T09:28:55;1.70;;;1.20;;
14903;SDS011;7543;53.148;8.234;2023-02-28T09:31:26;1.50;;;1.03;;
14903;SDS011;7543;53.148;8.234;2023-02-28T09:33:57;1.77;;;1.03;;
14903;SDS011;7543;53.148;8.234;2023-02-28T09:36:26;2.93;;;1.40;;
14903;SDS011;7543;53.148;8.234;2023-02-28T09:38:56;1.40;;;1.30;;
14903;SDS011;7543;53.148;8.234;2023-02-28T09:41:25;2.57;;;1.33;;
14903;SDS011;7543;53.148;8.234;2023-02-28T09:43:58;2.67;;;1.57;;
14903;SDS011;7543;53.148;8.234;2023-02-28T09:46:31;1.67;;;1.10;;
14903;SDS011;7543;53.148;8.234;2023-02-28T09:49:03;1.57;;;1.13;;
14903;SDS011;7543;53.148;8.234;2023-02-28T09:51:37;3.07;;;1.53;;
14903;SDS011;7543;53.148;8.234;2023-02-28T09:54:13;3.27;;;1.57;;
14903;SDS011;7543;53.148;8.234;2023-02-28T09:56:45;5.40;;;1.83;;
14903;SDS011;7543;53.148;8.234;2023-02-28T10:02:19;2.47;;;1.40;;
14903;SDS011;7543;53.148;8.234;2023-02-28T10:04:59;2.47;;;1.50;;
14903;SDS011;7543;53.148;8.234;2023-02-28T10:07:35;2.87;;;1.43;;
14903;SDS011;7543;53.148;8.234;2023-02-28T10:10:15;2.50;;;1.50;;
14903;SDS011;7543;53.148;8.234;2023-02-28T10:12:47;3.13;;;1.60;;
14903;SDS011;7543;53.148;8.234;2023-02-28T10:15:17;1.97;;;1.30;;
14903;SDS011;7543;53.148;8.234;2023-02-28T10:17:47;1.97;;;1.20;;
14903;SDS011;7543;53.148;8.234;2023-02-28T10:20:19;1.93;;;1.30;;
14903;SDS011;7543;53.148;8.234;2023-02-28T10:22:50;3.73;;;1.30;;
14903;SDS011;7543;53.148;8.234;2023-02-28T10:25:22;5.87;;;1.50;;
14903;SDS011;7543;53.148;8.234;2023-02-28T10:27:52;3.47;;;1.27;;
14903;SDS011;7543;53.148;8.234;2023-02-28T10:30:21;2.50;;;1.50;;
14903;SDS011;7543;53.148;8.234;2023-02-28T10:32:50;2.73;;;1.50;;
14903;SDS011;7543;53.148;8.234;2023-02-28T10:35:23;2.43;;;1.27;;
14903;SDS011;7543;53.148;8.234;2023-02-28T10:37:53;2.30;;;1.10;;
14903;SDS011;7543;53.148;8.234;2023-02-28T10:40:30;1.60;;;1.10;;
14903;SDS011;7543;53.148;8.234;2023-02-28T10:43:00;2.20;;;1.07;;
14903;SDS011;7543;53.148;8.234;2023-02-28T10:45:30;2.70;;;1.37;;
14903;SDS011;7543;53.148;8.234;2023-02-28T10:48:01;3.60;;;1.40;;
14903;SDS011;7543;53.148;8.234;2023-02-28T10:50:34;3.03;;;0.93;;
14903;SDS011;7543;53.148;8.234;2023-02-28T10:53:24;1.50;;;1.00;;
14903;SDS011;7543;53.148;8.234;2023-02-28T10:55:59;1.87;;;1.27;;
14903;SDS011;7543;53.148;8.234;2023-02-28T10:58:30;1.47;;;1.00;;
14903;SDS011;7543;53.148;8.234;2023-02-28T11:01:17;1.77;;;1.20;;
14903;SDS011;7543;53.148;8.234;2023-02-28T11:03:47;1.63;;;1.33;;
14903;SDS011;7543;53.148;8.234;2023-02-28T11:06:18;1.87;;;1.07;;
14903;SDS011;7543;53.148;8.234;2023-02-28T11:08:49;1.30;;;1.07;;
14903;SDS011;7543;53.148;8.234;2023-02-28T11:11:19;2.50;;;1.03;;
14903;SDS011;7543;53.148;8.234;2023-02-28T11:13:50;2.50;;;1.33;;
14903;SDS011;7543;53.148;8.234;2023-02-28T11:16:20;1.67;;;1.10;;
14903;SDS011;7543;53.148;8.234;2023-02-28T11:18:49;1.30;;;1.10;;
14903;SDS011;7543;53.148;8.234;2023-02-28T11:21:21;1.97;;;1.17;;
14903;SDS011;7543;53.148;8.234;2023-02-28T11:23:51;2.50;;;1.33;;
14903;SDS011;7543;53.148;8.234;2023-02-28T11:29:11;4.47;;;1.30;;
14903;SDS011;7543;53.148;8.234;2023-02-28T11:31:41;3.47;;;1.03;;
14903;SDS011;7543;53.148;8.234;2023-02-28T11:34:23;1.70;;;1.10;;
14903;SDS011;7543;53.148;8.234;2023-02-28T11:36:54;1.57;;;1.20;;
14903;SDS011;7543;53.148;8.234;2023-02-28T11:39:24;1.77;;;1.20;;
14903;SDS011;7543;53.148;8.234;2023-02-28T11:41:58;1.83;;;1.27;;
14903;SDS011;7543;53.148;8.234;2023-02-28T11:44:42;1.77;;;1.10;;
14903;SDS011;7543;53.148;8.234;2023-02-28T11:47:25;2.17;;;1.27;;
14903;SDS011;7543;53.148;8.234;2023-02-28T11:50:08;2.67;;;1.20;;
14903;SDS011;7543;53.148;8.234;2023-02-28T11:52:48;2.73;;;1.07;;
14903;SDS011;7543;53.148;8.234;2023-02-28T11:55:21;1.30;;;1.10;;
14903;SDS011;7543;53.148;8.234;2023-02-28T11:57:58;2.60;;;1.23;;
14903;SDS011;7543;53.148;8.234;2023-02-28T12:00:38;2.30;;;1.40;;
14903;SDS011;7543;53.148;8.234;2023-02-28T12:03:19;1.40;;;1.00;;
14903;SDS011;7543;53.148;8.234;2023-02-28T12:05:56;1.27;;;0.97;;
14903;SDS011;7543;53.148;8.234;2023-02-28T12:08:36;2.43;;;1.37;;
14903;SDS011;7543;53.148;8.234;2023-02-28T12:11:13;1.93;;;1.30;;
14903;SDS011;7543;53.148;8.234;2023-02-28T12:13:48;3.43;;;1.40;;
14903;SDS011;7543;53.148;8.234;2023-02-28T12:16:24;2.00;;;1.23;;
14903;SDS011;7543;53.148;8.234;2023-02-28T12:19:12;1.63;;;1.03;;
14903;SDS011;7543;53.148;8.234;2023-02-28T12:21:51;3.13;;;1.20;;
14903;SDS011;7543;53.148;8.234;2023-02-28T12:24:47;2.63;;;1.50;;
14903;SDS011;7543;53.148;8.234;2023-02-28T12:27:31;3.20;;;1.20;;
14903;SDS011;7543;53.148;8.234;2023-02-28T12:30:02;1.67;;;1.10;;
14903;SDS011;7543;53.148;8.234;2023-02-28T12:32:33;1.57;;;1.23;;
14903;SDS011;7543;53.148;8.234;2023-02-28T12:35:05;2.17;;;1.40;;
14903;SDS011;7543;53.148;8.234;2023-02-28T12:37:40;2.20;;;1.70;;
14903;SDS011;7543;53.148;8.234;2023-02-28T12:40:12;2.40;;;1.50;;
14903;SDS011;7543;53.148;8.234;2023-02-28T12:42:43;1.67;;;1.20;;
14903;SDS011;7543;53.148;8.234;2023-02-28T12:45:15;1.63;;;1.20;;
14903;SDS011;7543;53.148;8.234;2023-02-28T12:47:48;1.67;;;1.20;;
14903;SDS011;7543;53.148;8.234;2023-02-28T12:50:18;2.17;;;1.57;;
14903;SDS011;7543;53.148;8.234;2023-02-28T12:52:50;2.33;;;1.40;;
14903;SDS011;7543;53.148;8.234;2023-02-28T12:55:26;2.40;;;1.37;;
14903;SDS011;7543;53.148;8.234;2023-02-28T12:57:58;4.07;;;1.33;;
14903;SDS011;7543;53.148;8.234;2023-02-28T13:00:33;1.73;;;1.33;;
14903;SDS011;7543;53.148;8.234;2023-02-28T13:03:24;2.30;;;1.30;;
14903;SDS011;7543;53.148;8.234;2023-02-28T13:09:01;2.17;;;1.30;;
14903;SDS011;7543;53.148;8.234;2023-02-28T13:11:38;2.33;;;1.30;;
14903;SDS011;7543;53.148;8.234;2023-02-28T13:14:16;1.50;;;1.10;;
14903;SDS011;7543;53.148;8.234;2023-02-28T13:16:49;2.00;;;1.43;;
14903;SDS011;7543;53.148;8.234;2023-02-28T13:19:22;2.37;;;1.40;;
14903;SDS011;7543;53.148;8.234;2023-02-28T13:21:52;1.90;;;1.50;;
14903;SDS011;7543;53.148;8.234;2023-02-28T13:33:22;2.87;;;1.60;;
14903;SDS011;7543;53.148;8.234;2023-02-28T13:36:07;2.50;;;1.40;;
14903;SDS011;7543;53.148;8.234;2023-02-28T13:38:39;2.87;;;1.60;;
14903;SDS011;7543;53.148;8.234;2023-02-28T13:44:27;2.60;;;1.60;;
14903;SDS011;7543;53.148;8.234;2023-02-28T13:49:49;3.50;;;1.83;;
14903;SDS011;7543;53.148;8.234;2023-02-28T13:52:19;2.80;;;1.50;;
14903;SDS011;7543;53.148;8.234;2023-02-28T13:54:57;2.20;;;1.40;;
14903;SDS011;7543;53.148;8.234;2023-02-28T13:57:57;1.97;;;1.33;;
14903;SDS011;7543;53.148;8.234;2023-02-28T14:00:40;1.83;;;1.30;;
14903;SDS011;7543;53.148;8.234;2023-02-28T14:03:21;1.80;;;1.20;;
14903;SDS011;7543;53.148;8.234;2023-02-28T14:06:08;1.57;;;1.10;;
14903;SDS011;7543;53.148;8.234;2023-02-28T14:08:45;2.87;;;1.40;;
14903;SDS011;7543;53.148;8.234;2023-02-28T14:11:24;2.17;;;1.40;;
14903;SDS011;7543;53.148;8.234;2023-02-28T14:13:58;2.00;;;1.40;;
14903;SDS011;7543;53.148;8.234;2023-02-28T14:16:34;2.40;;;1.43;;
14903;SDS011;7543;53.148;8.234;2023-02-28T14:19:09;2.10;;;1.50;;
14903;SDS011;7543;53.148;8.234;2023-02-28T14:21:43;2.37;;;1.43;;
14903;SDS011;7543;53.148;8.234;2023-02-28T14:24:22;3.63;;;1.37;;
14903;SDS011;7543;53.148;8.234;2023-02-28T14:33:08;2.23;;;1.50;;
14903;SDS011;7543;53.148;8.234;2023-02-28T14:35:46;4.33;;;1.47;;
14903;SDS011;7543;53.148;8.234;2023-02-28T14:38:21;3.73;;;1.57;;
14903;SDS011;7543;53.148;8.234;2023-02-28T14:40:52;2.20;;;1.30;;
14903;SDS011;7543;53.148;8.234;2023-02-28T14:43:21;2.13;;;1.40;;
14903;SDS011;7543;53.148;8.234;2023-02-28T14:45:52;2.20;;;1.60;;
14903;SDS011;7543;53.148;8.234;2023-02-28T14:48:23;1.87;;;1.40;;
14903;SDS011;7543;53.148;8.234;2023-02-28T14:50:53;1.77;;;1.40;;
14903;SDS011;7543;53.148;8.234;2023-02-28T14:53:23;4.90;;;1.63;;
14903;SDS011;7543;53.148;8.234;2023-02-28T14:55:54;2.03;;;1.67;;
14903;SDS011;7543;53.148;8.234;2023-02-28T14:58:23;2.90;;;1.50;;
14903;SDS011;7543;53.148;8.234;2023-02-28T15:00:53;2.80;;;1.70;;
14903;SDS011;7543;53.148;8.234;2023-02-28T15:03:25;1.60;;;1.30;;
14903;SDS011;7543;53.148;8.234;2023-02-28T15:05:59;4.03;;;1.80;;
14903;SDS011;7543;53.148;8.234;2023-02-28T15:08:29;2.10;;;1.37;;
14903;SDS011;7543;53.148;8.234;2023-02-28T15:11:02;3.20;;;1.50;;
14903;SDS011;7543;53.148;8.234;2023-02-28T15:13:34;2.47;;;1.70;;
14903;SDS011;7543;53.148;8.234;2023-02-28T15:16:05;2.30;;;1.50;;
14903;SDS011;7543;53.148;8.234;2023-02-28T15:18:41;2.97;;;1.60;;
14903;SDS011;7543;53.148;8.234;2023-02-28T15:21:13;2.23;;;1.60;;
14903;SDS011;7543;53.148;8.234;2023-02-28T15:23:44;2.80;;;1.67;;
14903;SDS011;7543;53.148;8.234;2023-02-28T15:26:13;2.13;;;1.50;;
14903;SDS011;7543;53.148;8.234;2023-02-28T15:28:44;3.97;;;1.90;;
14903;SDS011;7543;53.148;8.234;2023-02-28T15:31:18;4.57;;;1.50;;
14903;SDS011;7543;53.148;8.234;2023-02-28T15:33:54;3.57;;;1.80;;
14903;SDS011;7543;53.148;8.234;2023-02-28T15:36:24;3.57;;;2.10;;
14903;SDS011;7543;53.148;8.234;2023-02-28T15:38:55;1.83;;;1.47;;
14903;SDS011;7543;53.148;8.234;2023-02-28T15:41:24;2.57;;;1.67;;
14903;SDS011;7543;53.148;8.234;2023-02-28T15:46:43;1.73;;;1.50;;
14903;SDS011;7543;53.148;8.234;2023-02-28T15:49:16;2.03;;;1.50;;
14903;SDS011;7543;53.148;8.234;2023-02-28T15:51:46;2.73;;;1.47;;
14903;SDS011;7543;53.148;8.234;2023-02-28T15:54:18;2.43;;;1.43;;
14903;SDS011;7543;53.148;8.234;2023-02-28T15:56:49;2.37;;;1.60;;
14903;SDS011;7543;53.148;8.234;2023-02-28T15:59:19;3.17;;;1.70;;
14903;SDS011;7543;53.148;8.234;2023-02-28T16:02:01;1.90;;;1.40;;
14903;SDS011;7543;53.148;8.234;2023-02-28T16:04:33;4.90;;;1.57;;
14903;SDS011;7543;53.148;8.234;2023-02-28T16:07:01;4.47;;;1.90;;
14903;SDS011;7543;53.148;8.234;2023-02-28T16:09:31;3.70;;;2.00;;